Time;durP1;ratioP1;P1;durP2;ratioP2;P2;SDS_P1;SDS_P2;PMS_P1;PMS_P2;Temp;Humidity;BMP_temperature;BMP_pressure;BME280_temperature;BME280_humidity;BME280_pressure;Samples;Min_cycle;Max_cycle;Signal;HPM_P1;HPM_P2
2021/07/26 00:01:51;;;;;;;12.52;6.75;;;17.70;93.60;;;;;;4390105;32;20068;-71
2021/07/26 00:04:18;;;;;;;18.73;6.28;;;17.80;89.50;;;;;;4389906;32;20141;-72
2021/07/26 00:06:46;;;;;;;15.02;6.20;;;17.90;90.40;;;;;;4377349;32;20553;-71
2021/07/26 00:09:12;;;;;;;17.85;6.60;;;17.90;83.80;;;;;;4352970;32;20081;-72
2021/07/26 00:11:38;;;;;;;16.37;6.53;;;17.80;91.70;;;;;;4377605;32;20077;-72
2021/07/26 00:14:04;;;;;;;11.30;6.72;;;17.80;90.80;;;;;;4377588;32;20444;-72
2021/07/26 00:16:31;;;;;;;41.92;9.18;;;17.80;92.50;;;;;;4353355;32;20078;-72
2021/07/26 00:18:57;;;;;;;25.77;9.13;;;17.80;90.40;;;;;;4352677;32;20077;-72
2021/07/26 00:21:23;;;;;;;18.87;7.12;;;17.90;85.80;;;;;;4389829;32;20591;-72
2021/07/26 00:23:50;;;;;;;21.73;7.53;;;17.80;93.30;;;;;;4391103;32;20523;-71
2021/07/26 00:26:17;;;;;;;18.52;6.70;;;17.80;94.10;;;;;;4390060;32;20540;-71
2021/07/26 00:28:43;;;;;;;19.62;7.18;;;17.80;94.10;;;;;;4389876;32;20089;-72
2021/07/26 00:31:09;;;;;;;13.68;6.97;;;17.80;94.90;;;;;;4389960;32;20088;-72
2021/07/26 00:34:19;;;;;;;11.77;5.80;;;17.80;94.80;;;;;;4377679;32;20073;-71
2021/07/26 00:36:50;;;;;;;33.03;7.65;;;17.90;94.60;;;;;;4377877;32;20147;-72
2021/07/26 00:39:27;;;;;;;47.10;8.13;;;17.90;98.80;;;;;;4352902;32;20089;-72
2021/07/26 00:41:54;;;;;;;34.38;8.02;;;17.90;99.90;;;;;;4354504;32;20500;-72
2021/07/26 00:44:22;;;;;;;13.80;5.28;;;17.90;99.10;;;;;;4353721;32;20150;-72
2021/07/26 00:46:49;;;;;;;11.68;6.10;;;18.00;97.20;;;;;;4378477;32;20076;-72
2021/07/26 00:49:16;;;;;;;29.85;6.95;;;17.90;99.30;;;;;;4354080;32;20538;-72
2021/07/26 00:51:45;;;;;;;51.53;9.02;;;17.90;99.90;;;;;;4352722;32;20127;-71
2021/07/26 00:54:12;;;;;;;35.28;8.15;;;18.00;99.90;;;;;;4352765;32;20227;-72
2021/07/26 00:56:38;;;;;;;19.33;7.03;;;18.00;99.90;;;;;;4352784;32;20084;-72
2021/07/26 00:59:05;;;;;;;24.58;6.57;;;18.10;99.90;;;;;;4352833;32;20184;-72
2021/07/26 01:01:31;;;;;;;10.25;4.05;;;18.10;99.90;;;;;;4364529;32;20066;-71
2021/07/26 01:03:57;;;;;;;10.95;4.28;;;18.10;99.90;;;;;;4389390;32;20086;-72
2021/07/26 01:06:24;;;;;;;20.55;6.00;;;18.30;99.90;;;;;;4352590;32;20161;-72
2021/07/26 01:08:50;;;;;;;14.20;5.07;;;18.20;99.90;;;;;;4377066;32;20153;-71
2021/07/26 01:11:16;;;;;;;14.80;5.53;;;18.30;99.90;;;;;;4377447;32;20097;-71
2021/07/26 01:13:42;;;;;;;15.23;5.55;;;18.30;99.90;;;;;;4352267;32;20177;-72
2021/07/26 01:16:09;;;;;;;16.70;5.18;;;18.10;99.90;;;;;;4377505;32;20166;-72
2021/07/26 01:18:36;;;;;;;19.50;5.25;;;18.20;99.90;;;;;;4380337;32;20529;-71
2021/07/26 01:21:09;;;;;;;9.32;4.47;;;18.20;99.90;;;;;;4355235;32;20081;-72
2021/07/26 01:23:37;;;;;;;12.77;4.50;;;18.20;99.90;;;;;;4355875;32;20081;-72
2021/07/26 01:26:05;;;;;;;9.13;4.37;;;18.20;99.90;;;;;;4379781;32;20074;-72
2021/07/26 01:28:45;;;;;;;13.68;5.12;;;18.30;99.90;;;;;;4367501;32;20085;-72
2021/07/26 01:31:12;;;;;;;15.32;5.07;;;18.30;99.90;;;;;;4356513;32;20081;-73
2021/07/26 01:33:40;;;;;;;15.95;4.97;;;18.30;99.90;;;;;;4379784;32;20166;-72
2021/07/26 01:36:08;;;;;;;21.15;5.45;;;18.40;99.90;;;;;;4355191;32;20082;-72
2021/07/26 01:38:34;;;;;;;18.12;5.57;;;18.40;99.90;;;;;;4355219;32;20085;-72
2021/07/26 01:41:17;;;;;;;17.35;4.53;;;18.40;99.90;;;;;;4367175;32;20448;-72
2021/07/26 01:44:25;;;;;;;12.93;4.60;;;18.40;99.90;;;;;;4368795;32;20070;-71
2021/07/26 01:46:57;;;;;;;18.15;5.50;;;18.40;99.90;;;;;;4364249;32;20078;-71
2021/07/26 01:49:52;;;;;;;10.68;4.45;;;18.40;99.90;;;;;;4354530;32;20467;-73
2021/07/26 01:52:19;;;;;;;6.03;3.83;;;18.40;99.90;;;;;;4393280;32;20074;-72
2021/07/26 01:54:45;;;;;;;7.65;3.62;;;18.40;99.90;;;;;;4366952;32;20080;-71
2021/07/26 01:57:12;;;;;;;7.05;3.30;;;18.50;99.90;;;;;;4367389;32;20182;-71
2021/07/26 01:59:39;;;;;;;6.05;3.28;;;18.50;99.90;;;;;;4354662;32;20096;-74
2021/07/26 02:02:05;;;;;;;6.85;3.85;;;18.50;99.90;;;;;;4354544;32;20150;-73
2021/07/26 02:04:31;;;;;;;5.53;3.30;;;18.70;99.90;;;;;;4366982;32;20176;-72
2021/07/26 02:06:57;;;;;;;14.98;5.00;;;18.80;99.90;;;;;;4354509;32;20089;-72
2021/07/26 02:09:24;;;;;;;12.10;4.40;;;18.90;99.90;;;;;;4393160;32;20073;-71
2021/07/26 02:11:50;;;;;;;17.45;4.72;;;18.80;99.90;;;;;;4391845;32;20078;-71
2021/07/26 02:14:16;;;;;;;11.50;4.50;;;18.90;99.90;;;;;;4391478;32;20073;-72
2021/07/26 02:16:42;;;;;;;10.15;4.43;;;18.90;99.90;;;;;;4379141;32;20504;-72
2021/07/26 02:19:08;;;;;;;7.78;3.87;;;19.00;99.90;;;;;;4379039;32;20530;-71
2021/07/26 02:21:35;;;;;;;8.52;4.18;;;19.00;99.90;;;;;;4341947;32;20086;-70
2021/07/26 02:24:01;;;;;;;24.02;5.75;;;19.00;99.90;;;;;;4366694;32;20516;-72
2021/07/26 02:26:27;;;;;;;24.65;5.85;;;19.00;99.90;;;;;;4378958;32;20159;-72
2021/07/26 02:28:54;;;;;;;24.75;4.95;;;19.20;99.90;;;;;;4378372;32;20592;-71
2021/07/26 02:31:20;;;;;;;10.95;3.60;;;19.30;99.90;;;;;;4354463;32;20077;-72
2021/07/26 02:33:46;;;;;;;8.13;3.28;;;19.30;99.90;;;;;;4378911;32;20080;-72
2021/07/26 02:36:12;;;;;;;9.85;3.58;;;19.40;99.90;;;;;;4391775;32;20072;-72
2021/07/26 02:38:38;;;;;;;11.12;3.25;;;19.40;99.90;;;;;;4391525;32;20062;-71
2021/07/26 02:41:12;;;;;;;5.95;2.75;;;19.40;99.90;;;;;;4391440;32;20070;-70
2021/07/26 02:43:38;;;;;;;4.85;2.33;;;19.40;99.90;;;;;;4379951;32;20571;-70
2021/07/26 02:46:06;;;;;;;5.22;2.95;;;19.30;99.90;;;;;;4379304;32;20166;-72
2021/07/26 02:48:36;;;;;;;6.47;2.92;;;19.40;99.90;;;;;;4367501;32;20088;-72
2021/07/26 02:51:02;;;;;;;8.40;3.00;;;19.40;99.90;;;;;;4379142;32;20166;-71
2021/07/26 02:53:28;;;;;;;6.07;3.00;;;19.40;99.90;;;;;;4391252;32;20243;-71
2021/07/26 02:55:54;;;;;;;5.37;3.22;;;19.50;99.90;;;;;;4365965;32;20170;-73
2021/07/26 02:58:21;;;;;;;4.93;2.85;;;19.50;99.90;;;;;;4378388;32;20086;-71
2021/07/26 03:00:47;;;;;;;6.28;2.62;;;19.50;99.90;;;;;;4354024;32;20070;-72
2021/07/26 03:03:14;;;;;;;10.95;3.15;;;19.50;99.90;;;;;;4353689;32;20176;-71
2021/07/26 03:05:40;;;;;;;6.20;3.00;;;19.50;99.90;;;;;;4378694;32;20078;-72
2021/07/26 03:08:06;;;;;;;5.87;3.12;;;19.40;99.90;;;;;;4378762;32;20500;-72
2021/07/26 03:10:32;;;;;;;11.35;3.55;;;19.40;99.90;;;;;;4378732;32;20081;-72
2021/07/26 03:12:59;;;;;;;9.65;3.47;;;19.30;99.90;;;;;;4353938;32;20534;-72
2021/07/26 03:15:25;;;;;;;13.52;4.00;;;19.30;99.90;;;;;;4378607;32;20061;-71
2021/07/26 03:17:52;;;;;;;11.60;3.92;;;19.20;99.90;;;;;;4353743;32;20093;-71
2021/07/26 03:20:18;;;;;;;15.77;3.60;;;19.20;99.90;;;;;;4365914;32;20488;-71
2021/07/26 03:22:53;;;;;;;7.47;3.62;;;19.20;99.90;;;;;;4341343;32;20080;-72
2021/07/26 03:25:20;;;;;;;7.57;3.40;;;19.20;99.90;;;;;;4377949;32;20570;-71
2021/07/26 03:27:48;;;;;;;6.80;3.60;;;19.10;99.90;;;;;;4365827;32;20072;-72
2021/07/26 03:30:18;;;;;;;11.18;4.00;;;19.10;99.90;;;;;;4378037;32;20073;-71
2021/07/26 03:32:44;;;;;;;13.05;3.70;;;19.20;99.90;;;;;;4365808;32;20150;-71
2021/07/26 03:35:12;;;;;;;9.10;4.82;;;19.20;99.90;;;;;;4365318;32;20520;-73
2021/07/26 03:37:38;;;;;;;9.63;3.70;;;18.90;99.90;;;;;;4378428;32;20078;-71
2021/07/26 03:40:06;;;;;;;20.30;4.30;;;18.70;99.90;;;;;;4377766;32;20093;-71
2021/07/26 03:42:36;;;;;;;7.00;2.97;;;18.60;99.90;;;;;;4378265;32;20073;-72
2021/07/26 03:45:04;;;;;;;7.62;2.85;;;18.60;99.90;;;;;;4366002;32;20178;-72
2021/07/26 03:47:30;;;;;;;4.47;3.00;;;18.50;99.90;;;;;;4353483;32;20097;-72
2021/07/26 03:49:56;;;;;;;11.45;2.90;;;18.60;99.90;;;;;;4392422;32;20086;-73
2021/07/26 03:52:22;;;;;;;9.95;2.87;;;18.70;99.90;;;;;;4392188;32;20248;-72
2021/07/26 03:54:48;;;;;;;2.60;1.92;;;18.70;99.90;;;;;;4378221;32;20089;-72
2021/07/26 03:57:14;;;;;;;5.28;2.10;;;18.70;99.90;;;;;;4378193;32;20073;-72
2021/07/26 03:59:40;;;;;;;4.60;2.12;;;18.80;99.90;;;;;;4390497;32;20100;-71
2021/07/26 04:02:07;;;;;;;5.62;2.33;;;18.90;99.90;;;;;;4364813;32;20523;-71
2021/07/26 04:04:33;;;;;;;3.42;2.50;;;19.00;99.90;;;;;;4352899;32;20463;-72
2021/07/26 04:07:02;;;;;;;4.28;2.33;;;19.00;99.90;;;;;;4377572;32;20078;-72
2021/07/26 04:09:37;;;;;;;5.62;2.30;;;19.00;99.90;;;;;;4390312;32;20088;-71
2021/07/26 04:12:10;;;;;;;4.25;2.03;;;19.20;99.90;;;;;;4354842;32;20447;-72
2021/07/26 04:14:39;;;;;;;4.62;2.10;;;19.60;99.90;;;;;;4367363;32;20097;-71
2021/07/26 04:17:06;;;;;;;4.75;2.37;;;19.70;99.90;;;;;;4391426;32;20547;-72
2021/07/26 04:19:33;;;;;;;6.60;2.12;;;19.70;99.90;;;;;;4378313;32;20502;-71
2021/07/26 04:21:59;;;;;;;3.35;2.00;;;19.70;99.90;;;;;;4365150;32;20108;-72
2021/07/26 04:24:25;;;;;;;4.37;2.28;;;19.80;99.90;;;;;;4390131;32;20437;-71
2021/07/26 04:26:52;;;;;;;6.95;3.60;;;19.90;99.90;;;;;;4377391;32;20066;-72
2021/07/26 04:29:19;;;;;;;7.57;3.65;;;20.00;99.90;;;;;;4352560;32;20078;-71
2021/07/26 04:31:49;;;;;;;7.80;4.68;;;20.10;99.90;;;;;;4389950;32;20259;-73
2021/07/26 04:34:15;;;;;;;5.22;3.92;;;20.30;99.90;;;;;;4389996;32;20078;-72
2021/07/26 04:36:41;;;;;;;6.15;2.70;;;20.50;99.90;;;;;;4365284;32;20580;-72
2021/07/26 04:39:08;;;;;;;5.62;3.30;;;20.80;99.70;;;;;;4365064;32;20153;-72
2021/07/26 04:41:35;;;;;;;7.15;3.08;;;20.90;98.30;;;;;;4353196;32;20086;-72
2021/07/26 04:44:01;;;;;;;7.80;2.75;;;20.90;98.70;;;;;;4353084;32;20573;-72
2021/07/26 04:46:27;;;;;;;3.20;2.15;;;21.00;96.30;;;;;;4364628;32;20093;-72
2021/07/26 04:48:53;;;;;;;6.57;3.10;;;20.90;94.50;;;;;;4364889;32;20100;-71
2021/07/26 04:51:19;;;;;;;10.80;3.75;;;21.10;94.50;;;;;;4365466;32;20159;-72
2021/07/26 04:53:46;;;;;;;5.78;2.90;;;22.10;89.40;;;;;;4393210;32;20077;-72
2021/07/26 04:56:12;;;;;;;5.70;3.85;;;22.60;82.70;;;;;;4356126;32;20089;-71
2021/07/26 04:58:38;;;;;;;5.50;2.10;;;23.30;73.70;;;;;;4380705;32;20161;-71
2021/07/26 05:01:04;;;;;;;5.80;1.90;;;22.60;72.80;;;;;;4367977;32;20089;-71
2021/07/26 05:03:30;;;;;;;4.68;1.92;;;21.60;73.60;;;;;;4380008;32;20109;-71
2021/07/26 05:05:57;;;;;;;3.53;1.85;;;21.30;74.00;;;;;;4380190;32;20093;-72
2021/07/26 05:08:23;;;;;;;5.30;2.03;;;21.60;75.30;;;;;;4367819;32;20084;-71
2021/07/26 05:10:49;;;;;;;3.58;1.95;;;21.70;72.40;;;;;;4367824;32;20142;-71
2021/07/26 05:13:15;;;;;;;4.90;2.00;;;21.60;71.30;;;;;;4367559;32;20078;-73
2021/07/26 05:15:42;;;;;;;3.87;2.00;;;21.80;75.20;;;;;;4368075;32;20085;-72
2021/07/26 05:18:08;;;;;;;5.12;2.17;;;22.90;67.30;;;;;;4355513;32;20097;-70
2021/07/26 05:20:34;;;;;;;4.32;2.17;;;22.90;64.80;;;;;;4354894;32;20604;-72
2021/07/26 05:23:01;;;;;;;4.22;2.12;;;23.70;64.90;;;;;;4367372;32;20528;-72
2021/07/26 05:25:27;;;;;;;2.80;2.10;;;23.90;60.30;;;;;;4342634;32;20090;-71
2021/07/26 05:27:53;;;;;;;3.50;2.45;;;24.90;54.60;;;;;;4379758;32;20520;-71
2021/07/26 05:30:19;;;;;;;3.00;2.17;;;26.20;49.30;;;;;;4367020;32;20082;-72
2021/07/26 05:32:45;;;;;;;2.42;1.90;;;25.90;47.80;;;;;;4379560;32;20504;-72
2021/07/26 05:35:12;;;;;;;4.12;1.75;;;24.60;51.10;;;;;;4379364;32;20077;-71
2021/07/26 05:37:38;;;;;;;1.65;1.50;;;23.50;46.10;;;;;;4367455;32;20065;-71
2021/07/26 05:40:05;;;;;;;4.18;2.08;;;23.90;51.30;;;;;;4367535;32;20089;-72
2021/07/26 05:42:32;;;;;;;3.33;1.98;;;24.20;50.50;;;;;;4367350;32;20097;-72
2021/07/26 05:44:58;;;;;;;2.65;2.00;;;23.80;52.80;;;;;;4392036;32;20540;-72
2021/07/26 05:47:24;;;;;;;2.90;2.08;;;24.40;50.20;;;;;;4367342;32;20066;-71
2021/07/26 05:49:50;;;;;;;8.95;2.47;;;24.40;48.10;;;;;;4367402;32;20085;-71
2021/07/26 05:52:17;;;;;;;4.18;2.17;;;24.40;49.30;;;;;;4379859;32;20080;-71
2021/07/26 05:54:43;;;;;;;3.50;2.37;;;24.10;50.40;;;;;;4379860;32;20432;-71
2021/07/26 05:57:12;;;;;;;2.83;1.90;;;22.90;49.00;;;;;;4391651;32;20587;-71
2021/07/26 05:59:38;;;;;;;4.12;2.03;;;23.00;50.20;;;;;;4355726;32;20089;-69
2021/07/26 06:02:04;;;;;;;4.20;2.20;;;23.10;50.30;;;;;;4379370;32;20070;-71
2021/07/26 06:04:31;;;;;;;7.25;2.22;;;22.80;49.90;;;;;;4355124;32;20085;-71
2021/07/26 06:06:58;;;;;;;2.42;2.10;;;22.70;50.70;;;;;;4367063;32;20515;-71
2021/07/26 06:09:24;;;;;;;3.03;2.10;;;23.20;50.60;;;;;;4379338;32;20097;-71
2021/07/26 06:11:51;;;;;;;3.00;2.00;;;23.90;47.20;;;;;;4379219;32;20174;-71
2021/07/26 06:14:18;;;;;;;5.78;2.67;;;24.90;44.00;;;;;;4367139;32;20475;-72
2021/07/26 06:16:50;;;;;;;3.35;2.33;;;24.70;43.50;;;;;;4366684;32;20437;-72
2021/07/26 06:19:16;;;;;;;2.33;2.10;;;24.40;44.00;;;;;;4355441;32;20192;-70
2021/07/26 06:21:45;;;;;;;3.47;2.08;;;24.70;42.70;;;;;;4367177;32;20082;-69
2021/07/26 06:24:11;;;;;;;3.05;2.15;;;24.70;44.30;;;;;;4367571;32;20088;-71
2021/07/26 06:26:38;;;;;;;4.25;2.42;;;25.30;41.40;;;;;;4355056;32;20439;-69
2021/07/26 06:29:04;;;;;;;2.95;1.87;;;24.60;41.30;;;;;;4366614;32;20143;-70
2021/07/26 06:31:38;;;;;;;3.28;2.30;;;25.00;42.40;;;;;;4378868;32;20092;-68
2021/07/26 06:34:05;;;;;;;2.00;1.67;;;24.40;41.30;;;;;;4367489;32;20077;-70
2021/07/26 06:36:31;;;;;;;3.08;1.98;;;24.10;43.90;;;;;;4379200;32;20086;-71
2021/07/26 06:38:58;;;;;;;3.45;2.05;;;24.10;43.20;;;;;;4366372;32;20074;-72
2021/07/26 06:41:24;;;;;;;2.45;2.00;;;24.30;43.80;;;;;;4341896;32;20146;-70
2021/07/26 06:43:54;;;;;;;3.37;1.90;;;24.20;43.70;;;;;;4366685;32;20153;-67
2021/07/26 06:46:20;;;;;;;6.37;2.37;;;24.00;45.40;;;;;;4366455;32;20168;-68
2021/07/26 06:48:47;;;;;;;5.62;2.30;;;23.70;44.20;;;;;;4354275;32;20169;-69
2021/07/26 06:51:13;;;;;;;3.33;2.15;;;24.30;44.10;;;;;;4379040;32;20090;-69
2021/07/26 06:53:39;;;;;;;2.83;2.30;;;24.30;43.50;;;;;;4379252;32;20165;-70
2021/07/26 06:56:06;;;;;;;2.12;1.92;;;23.90;44.40;;;;;;4391929;32;20100;-70
2021/07/26 06:58:37;;;;;;;2.40;2.00;;;23.80;43.80;;;;;;4355762;32;20082;-69
2021/07/26 07:01:07;;;;;;;2.97;2.08;;;24.10;44.20;;;;;;4379522;32;20077;-70
2021/07/26 07:03:33;;;;;;;2.75;2.05;;;24.00;42.50;;;;;;4378928;32;20070;-69
2021/07/26 07:06:05;;;;;;;4.35;2.25;;;23.90;43.00;;;;;;4366417;32;20077;-69
2021/07/26 07:08:31;;;;;;;2.53;2.03;;;23.60;45.00;;;;;;4378779;32;20070;-69
2021/07/26 07:11:13;;;;;;;2.90;2.25;;;23.90;45.70;;;;;;4378606;32;20496;-67
2021/07/26 07:13:46;;;;;;;3.03;1.92;;;24.70;43.10;;;;;;4392259;32;20078;-68
2021/07/26 07:16:17;;;;;;;3.95;2.30;;;24.50;43.80;;;;;;4365868;32;20145;-69
2021/07/26 07:18:48;;;;;;;3.72;2.08;;;23.60;45.00;;;;;;4366671;32;20073;-68
2021/07/26 07:21:24;;;;;;;2.62;1.65;;;24.10;45.70;;;;;;4366370;32;20088;-68
2021/07/26 07:23:50;;;;;;;3.12;2.15;;;24.40;43.50;;;;;;4355621;32;20074;-69
2021/07/26 07:26:17;;;;;;;5.05;1.90;;;24.70;43.30;;;;;;4354222;32;20062;-68
2021/07/26 07:28:46;;;;;;;3.08;2.22;;;23.90;44.10;;;;;;4353417;32;20074;-67
2021/07/26 07:31:15;;;;;;;2.58;1.83;;;23.90;43.40;;;;;;4365806;32;20166;-67
2021/07/26 07:33:41;;;;;;;2.00;1.73;;;23.70;44.70;;;;;;4354853;32;20083;-65
2021/07/26 07:36:08;;;;;;;2.78;1.92;;;23.40;46.70;;;;;;4365749;32;20074;-67
2021/07/26 07:38:34;;;;;;;6.10;2.12;;;23.20;51.40;;;;;;4353791;32;20154;-68
2021/07/26 07:41:01;;;;;;;4.28;1.98;;;23.30;51.80;;;;;;4390610;32;20085;-71
2021/07/26 07:43:28;;;;;;;5.93;2.05;;;23.60;51.70;;;;;;4365870;32;20064;-68
2021/07/26 07:45:54;;;;;;;4.70;1.80;;;23.30;51.40;;;;;;4365947;32;20081;-70
2021/07/26 07:48:24;;;;;;;3.42;2.08;;;24.00;50.50;;;;;;4395557;32;20081;-72
2021/07/26 07:50:54;;;;;;;3.92;2.00;;;24.40;48.70;;;;;;4361360;32;20085;-70
2021/07/26 07:53:20;;;;;;;7.03;1.98;;;24.20;48.10;;;;;;4366904;32;20161;-70
2021/07/26 07:55:47;;;;;;;3.90;1.87;;;23.90;48.10;;;;;;4366282;32;20190;-71
2021/07/26 07:58:13;;;;;;;3.50;1.52;;;23.90;48.60;;;;;;4353884;32;20236;-70
2021/07/26 08:00:39;;;;;;;2.62;1.62;;;24.40;46.50;;;;;;4390802;32;20082;-66
2021/07/26 08:03:06;;;;;;;2.87;1.58;;;24.70;46.10;;;;;;4377787;32;20085;-68
2021/07/26 08:05:37;;;;;;;7.40;2.28;;;24.60;44.60;;;;;;4352284;32;20073;-67
2021/07/26 08:08:04;;;;;;;2.00;1.75;;;25.10;44.90;;;;;;4348226;32;20081;-74
2021/07/26 08:10:30;;;;;;;2.83;1.70;;;24.60;41.90;;;;;;4370508;32;20073;-66
2021/07/26 08:12:56;;;;;;;1.85;1.55;;;24.20;42.90;;;;;;4371292;32;20289;-65
2021/07/26 08:15:22;;;;;;;1.77;1.62;;;24.20;42.90;;;;;;4371814;32;20089;-66
2021/07/26 08:17:48;;;;;;;2.53;1.62;;;24.40;42.90;;;;;;4379962;32;20088;-66
2021/07/26 08:20:17;;;;;;;2.40;1.67;;;24.90;42.80;;;;;;4385464;32;20134;-64
2021/07/26 08:22:43;;;;;;;1.92;1.65;;;24.90;40.70;;;;;;4376089;32;20073;-65
2021/07/26 08:25:11;;;;;;;2.72;1.60;;;23.80;43.00;;;;;;4362972;32;20085;-64
2021/07/26 08:27:55;;;;;;;2.35;1.67;;;24.00;43.00;;;;;;4378850;32;20582;-65
2021/07/26 08:30:24;;;;;;;4.18;1.77;;;23.80;43.90;;;;;;4381577;32;20066;-65
2021/07/26 08:32:51;;;;;;;8.57;2.97;;;23.50;44.40;;;;;;4355506;32;20077;-65
2021/07/26 08:35:17;;;;;;;3.87;1.73;;;24.40;44.70;;;;;;4346169;32;20065;-68
2021/07/26 08:37:44;;;;;;;1.85;1.67;;;24.40;41.90;;;;;;4376252;32;20093;-63
2021/07/26 08:40:11;;;;;;;2.05;1.73;;;24.50;41.40;;;;;;4352302;32;20068;-66
2021/07/26 08:42:37;;;;;;;6.50;2.30;;;23.90;43.00;;;;;;4357331;32;20081;-66
2021/07/26 08:45:04;;;;;;;2.70;1.77;;;23.80;43.20;;;;;;4351594;32;20156;-67
2021/07/26 08:47:32;;;;;;;2.25;1.60;;;24.00;43.40;;;;;;4360226;32;20485;-65
2021/07/26 08:49:59;;;;;;;2.58;1.98;;;23.50;42.60;;;;;;4372348;32;20097;-68
2021/07/26 08:52:27;;;;;;;5.30;1.60;;;23.80;43.30;;;;;;4379209;32;20588;-67
2021/07/26 08:54:56;;;;;;;3.53;1.98;;;23.90;42.60;;;;;;4338484;32;20101;-69
2021/07/26 08:57:23;;;;;;;4.60;2.20;;;23.70;43.40;;;;;;4383856;32;20070;-67
2021/07/26 08:59:49;;;;;;;5.03;2.20;;;24.00;42.10;;;;;;4365128;32;20090;-67
2021/07/26 09:02:15;;;;;;;2.55;1.87;;;24.00;41.70;;;;;;4358916;32;20102;-67
2021/07/26 09:04:41;;;;;;;2.12;1.70;;;23.60;43.10;;;;;;4362777;32;20597;-67
2021/07/26 09:07:08;;;;;;;2.33;1.80;;;23.40;42.70;;;;;;4374747;32;20156;-63
2021/07/26 09:09:45;;;;;;;2.53;1.92;;;23.50;42.30;;;;;;4385994;32;20511;-64
2021/07/26 09:12:27;;;;;;;2.47;1.90;;;23.60;41.90;;;;;;4369924;32;20066;-63
2021/07/26 09:14:54;;;;;;;1.60;1.50;;;23.60;41.60;;;;;;4358984;32;20069;-66
2021/07/26 09:17:20;;;;;;;3.45;2.08;;;24.00;40.90;;;;;;4357396;32;20182;-67
2021/07/26 09:19:59;;;;;;;5.12;1.77;;;24.00;40.30;;;;;;4360995;32;20070;-70
2021/07/26 09:22:30;;;;;;;1.70;1.50;;;24.00;40.40;;;;;;4372799;32;20488;-71
2021/07/26 09:25:23;;;;;;;1.83;1.67;;;24.00;41.60;;;;;;4358057;32;20089;-71
2021/07/26 09:28:12;;;;;;;1.35;1.25;;;23.90;41.50;;;;;;4372516;32;20208;-71
2021/07/26 09:30:47;;;;;;;2.67;1.73;;;23.90;42.00;;;;;;4374141;32;20135;-68
2021/07/26 09:33:29;;;;;;;2.03;1.83;;;24.40;42.10;;;;;;4363823;32;20064;-68
2021/07/26 09:36:07;;;;;;;2.78;1.67;;;24.20;41.70;;;;;;4379160;32;20105;-70
2021/07/26 09:38:33;;;;;;;6.05;1.90;;;24.60;39.40;;;;;;4391640;32;20525;-66
2021/07/26 09:41:01;;;;;;;3.72;1.70;;;24.80;40.90;;;;;;4366394;32;20082;-68
2021/07/26 09:43:27;;;;;;;3.60;1.60;;;25.70;38.80;;;;;;4365176;32;20082;-68
2021/07/26 09:45:55;;;;;;;2.75;1.95;;;25.60;37.90;;;;;;4383145;32;20058;-70
2021/07/26 09:48:26;;;;;;;3.33;1.73;;;25.80;38.40;;;;;;4366319;32;20097;-68
2021/07/26 09:50:54;;;;;;;8.90;2.40;;;24.70;40.20;;;;;;4371466;32;20106;-66
2021/07/26 09:53:22;;;;;;;7.10;4.12;;;25.10;40.40;;;;;;4371125;32;20074;-69
2021/07/26 09:55:53;;;;;;;2.47;1.75;;;24.80;40.00;;;;;;4364428;32;20070;-67
2021/07/26 09:58:43;;;;;;;4.50;1.60;;;24.50;40.90;;;;;;4369080;32;20065;-70
2021/07/26 10:01:10;;;;;;;3.97;1.80;;;24.70;41.80;;;;;;4379362;32;20097;-71
2021/07/26 10:03:39;;;;;;;2.58;1.87;;;24.90;39.70;;;;;;4371994;32;20078;-70
2021/07/26 10:06:06;;;;;;;3.58;1.92;;;24.60;37.90;;;;;;4348237;32;20094;-70
2021/07/26 10:08:32;;;;;;;2.33;1.80;;;24.50;37.50;;;;;;4363903;32;20070;-66
2021/07/26 10:10:59;;;;;;;5.28;2.67;;;24.30;38.10;;;;;;4355631;32;20069;-67
2021/07/26 10:13:25;;;;;;;4.10;2.33;;;24.40;38.90;;;;;;4364848;32;20492;-67
2021/07/26 10:15:51;;;;;;;4.03;2.17;;;24.10;39.60;;;;;;4384997;32;20141;-66
2021/07/26 10:18:18;;;;;;;4.28;2.45;;;24.00;39.50;;;;;;4352828;32;20145;-68
2021/07/26 10:21:05;;;;;;;4.00;2.58;;;23.80;40.30;;;;;;4378687;32;20159;-65
2021/07/26 10:23:35;;;;;;;6.65;2.62;;;24.30;39.30;;;;;;4391697;32;20496;-70
2021/07/26 10:26:06;;;;;;;4.60;2.55;;;24.60;38.90;;;;;;4391327;32;20113;-68
2021/07/26 10:28:36;;;;;;;4.03;1.95;;;24.20;38.50;;;;;;4365987;32;20075;-69
2021/07/26 10:31:02;;;;;;;3.33;2.03;;;23.80;39.00;;;;;;4360226;32;20070;-65
2021/07/26 10:33:29;;;;;;;3.22;2.10;;;23.60;39.20;;;;;;4362411;32;20444;-74
2021/07/26 10:35:55;;;;;;;3.75;2.35;;;23.80;39.30;;;;;;4371926;32;20088;-68
2021/07/26 10:38:43;;;;;;;5.72;2.37;;;24.30;39.20;;;;;;4362967;32;20066;-68
2021/07/26 10:41:10;;;;;;;3.28;2.20;;;24.30;38.40;;;;;;4380412;32;20074;-69
2021/07/26 10:43:58;;;;;;;3.37;2.30;;;23.90;37.90;;;;;;4386430;32;20070;-71
2021/07/26 10:46:24;;;;;;;3.70;2.50;;;24.00;37.80;;;;;;4366437;32;20078;-68
2021/07/26 10:48:51;;;;;;;3.67;2.45;;;24.00;38.10;;;;;;4378453;32;20093;-66
2021/07/26 10:51:49;;;;;;;3.05;1.90;;;24.20;36.50;;;;;;4367559;32;20556;-70
2021/07/26 10:54:32;;;;;;;5.87;2.60;;;24.30;35.30;;;;;;4364814;32;20098;-70
2021/07/26 10:57:01;;;;;;;3.62;2.65;;;24.40;35.10;;;;;;4390823;32;20160;-71
2021/07/26 10:59:28;;;;;;;4.53;2.40;;;24.60;35.60;;;;;;4389306;32;20065;-65
2021/07/26 11:02:03;;;;;;;2.15;1.95;;;24.10;37.00;;;;;;4378145;32;20074;-65
2021/07/26 11:04:41;;;;;;;3.15;1.85;;;24.10;37.60;;;;;;4378291;32;20081;-73
2021/07/26 11:07:11;;;;;;;4.03;1.80;;;23.90;38.20;;;;;;4377814;32;20512;-69
2021/07/26 11:09:39;;;;;;;2.53;1.80;;;24.40;38.70;;;;;;4362815;32;20522;-69
2021/07/26 11:12:06;;;;;;;3.05;2.00;;;24.30;37.70;;;;;;4386805;32;20069;-69
2021/07/26 11:14:32;;;;;;;8.15;2.85;;;24.90;37.70;;;;;;4385381;32;20074;-70
2021/07/26 11:17:09;;;;;;;3.87;1.90;;;25.60;36.50;;;;;;4374799;32;20158;-71
2021/07/26 11:19:41;;;;;;;1.92;1.60;;;26.10;36.60;;;;;;4359885;32;20537;-68
2021/07/26 11:22:17;;;;;;;1.87;1.62;;;26.00;34.60;;;;;;4380168;32;20077;-69
2021/07/26 11:24:51;;;;;;;1.87;1.50;;;25.70;34.30;;;;;;4384651;32;20105;-70
2021/07/26 11:27:32;;;;;;;2.37;1.73;;;25.60;35.00;;;;;;4363112;32;20512;-69
2021/07/26 11:29:58;;;;;;;3.28;1.80;;;26.00;34.40;;;;;;4382327;32;20480;-68
2021/07/26 11:32:26;;;;;;;2.33;1.80;;;26.00;34.60;;;;;;4371828;32;20062;-71
2021/07/26 11:34:57;;;;;;;3.40;2.00;;;25.60;35.00;;;;;;4369611;32;20190;-70
2021/07/26 11:37:36;;;;;;;2.03;1.87;;;25.70;34.60;;;;;;4388810;32;20069;-69
2021/07/26 11:40:07;;;;;;;7.20;2.50;;;26.00;35.00;;;;;;4374468;32;20175;-66
2021/07/26 11:42:36;;;;;;;6.62;1.98;;;26.30;34.10;;;;;;4384331;32;20070;-70
2021/07/26 11:45:04;;;;;;;4.72;2.20;;;26.80;33.10;;;;;;4363275;32;20444;-72
2021/07/26 11:47:35;;;;;;;2.25;1.70;;;26.40;31.90;;;;;;4351745;32;20186;-71
2021/07/26 11:50:05;;;;;;;3.50;1.80;;;26.20;33.50;;;;;;4364667;32;20101;-71
2021/07/26 11:52:31;;;;;;;7.03;2.33;;;25.90;32.60;;;;;;4377808;32;20600;-72
2021/07/26 11:54:58;;;;;;;1.95;1.75;;;25.80;35.00;;;;;;4365131;32;20092;-72
2021/07/26 11:57:24;;;;;;;2.65;1.87;;;25.20;34.10;;;;;;4377479;32;20085;-73
2021/07/26 11:59:51;;;;;;;2.17;1.80;;;25.00;33.30;;;;;;4390050;32;20224;-70
2021/07/26 12:02:35;;;;;;;3.10;2.00;;;25.20;32.40;;;;;;4365311;32;20108;-71
2021/07/26 12:05:09;;;;;;;2.30;1.67;;;25.40;31.40;;;;;;4377784;32;20093;-72
2021/07/26 12:07:43;;;;;;;4.47;2.10;;;24.90;31.10;;;;;;4377870;32;20081;-71
2021/07/26 12:10:14;;;;;;;8.98;2.78;;;24.40;31.90;;;;;;4377616;32;20170;-71
2021/07/26 12:12:46;;;;;;;4.85;2.15;;;24.60;32.00;;;;;;4365143;32;20520;-71
2021/07/26 12:15:28;;;;;;;1.92;1.70;;;24.70;32.80;;;;;;4365264;32;20084;-71
2021/07/26 12:18:14;;;;;;;3.95;1.90;;;24.60;32.30;;;;;;4365637;32;20084;-71
2021/07/26 12:20:42;;;;;;;2.60;2.00;;;25.00;32.00;;;;;;4378755;32;20504;-71
2021/07/26 12:23:20;;;;;;;3.55;2.05;;;25.20;32.10;;;;;;4352900;32;20073;-71
2021/07/26 12:25:54;;;;;;;3.75;2.12;;;25.50;31.50;;;;;;4365943;32;20132;-71
2021/07/26 12:28:22;;;;;;;4.05;2.28;;;24.90;30.90;;;;;;4366149;32;20081;-71
2021/07/26 12:30:51;;;;;;;9.27;2.30;;;24.60;32.60;;;;;;4365112;32;20162;-71
2021/07/26 12:33:31;;;;;;;3.10;2.10;;;24.90;32.10;;;;;;4378219;32;20124;-71
2021/07/26 12:36:17;;;;;;;6.90;2.12;;;24.90;32.80;;;;;;4365029;32;20077;-71
2021/07/26 12:39:07;;;;;;;1.95;1.77;;;24.80;31.70;;;;;;4365356;32;20074;-72
2021/07/26 12:41:38;;;;;;;5.22;2.05;;;25.20;30.50;;;;;;4365893;32;20062;-71
2021/07/26 12:44:26;;;;;;;3.25;1.92;;;25.30;30.40;;;;;;4365551;32;20093;-71
2021/07/26 12:46:53;;;;;;;2.17;1.92;;;25.80;28.90;;;;;;4353741;32;20141;-72
2021/07/26 12:49:21;;;;;;;4.12;1.92;;;26.80;28.20;;;;;;4377320;32;20513;-71
2021/07/26 12:51:50;;;;;;;2.62;2.00;;;26.00;28.90;;;;;;4364935;32;20527;-72
2021/07/26 12:54:16;;;;;;;3.78;2.20;;;25.90;28.70;;;;;;4365975;32;20076;-72
2021/07/26 12:56:44;;;;;;;4.65;2.30;;;26.10;28.00;;;;;;4365056;32;20145;-71